sensor_id;sensor_type;location;lat;lon;timestamp;P1;durP1;ratioP1;P2;durP2;ratioP2
36303;SDS011;22335;49.800;8.596;2022-07-18T00:04:20;4.88;;;4.50;;
36303;SDS011;22335;49.800;8.596;2022-07-18T00:11:08;4.85;;;4.45;;
36303;SDS011;22335;49.800;8.596;2022-07-18T00:17:53;5.75;;;5.00;;
36303;SDS011;22335;49.800;8.596;2022-07-18T00:24:39;5.40;;;4.90;;
36303;SDS011;22335;49.800;8.596;2022-07-18T00:31:27;5.68;;;5.13;;
36303;SDS011;22335;49.800;8.596;2022-07-18T00:38:13;5.32;;;4.82;;
36303;SDS011;22335;49.800;8.596;2022-07-18T00:44:59;5.30;;;4.80;;
36303;SDS011;22335;49.800;8.596;2022-07-18T00:58:33;5.20;;;4.90;;
36303;SDS011;22335;49.800;8.596;2022-07-18T01:05:18;5.88;;;5.47;;
36303;SDS011;22335;49.800;8.596;2022-07-18T01:18:53;6.03;;;5.53;;
36303;SDS011;22335;49.800;8.596;2022-07-18T01:25:41;6.20;;;5.70;;
36303;SDS011;22335;49.800;8.596;2022-07-18T01:32:27;5.63;;;5.20;;
36303;SDS011;22335;49.800;8.596;2022-07-18T01:39:12;6.10;;;5.55;;
36303;SDS011;22335;49.800;8.596;2022-07-18T01:46:01;6.00;;;5.43;;
36303;SDS011;22335;49.800;8.596;2022-07-18T01:52:46;6.28;;;5.60;;
36303;SDS011;22335;49.800;8.596;2022-07-18T01:59:32;6.55;;;5.95;;
36303;SDS011;22335;49.800;8.596;2022-07-18T02:06:20;6.63;;;5.60;;
36303;SDS011;22335;49.800;8.596;2022-07-18T02:13:06;5.20;;;4.80;;
36303;SDS011;22335;49.800;8.596;2022-07-18T02:19:51;5.93;;;5.43;;
36303;SDS011;22335;49.800;8.596;2022-07-18T02:26:40;6.35;;;5.75;;
36303;SDS011;22335;49.800;8.596;2022-07-18T02:33:25;6.60;;;5.97;;
36303;SDS011;22335;49.800;8.596;2022-07-18T02:40:11;5.80;;;5.38;;
36303;SDS011;22335;49.800;8.596;2022-07-18T03:00:47;6.70;;;5.82;;
36303;SDS011;22335;49.800;8.596;2022-07-18T03:07:33;5.63;;;5.22;;
36303;SDS011;22335;49.800;8.596;2022-07-18T03:14:19;6.40;;;5.45;;
36303;SDS011;22335;49.800;8.596;2022-07-18T03:21:07;6.68;;;6.00;;
36303;SDS011;22335;49.800;8.596;2022-07-18T03:27:53;6.20;;;5.70;;
36303;SDS011;22335;49.800;8.596;2022-07-18T03:34:38;6.05;;;5.57;;
36303;SDS011;22335;49.800;8.596;2022-07-18T03:41:26;6.50;;;5.38;;
36303;SDS011;22335;49.800;8.596;2022-07-18T03:48:12;7.75;;;6.95;;
36303;SDS011;22335;49.800;8.596;2022-07-18T04:01:47;5.93;;;5.53;;
36303;SDS011;22335;49.800;8.596;2022-07-18T04:08:32;6.82;;;5.82;;
36303;SDS011;22335;49.800;8.596;2022-07-18T04:15:18;6.47;;;5.88;;
36303;SDS011;22335;49.800;8.596;2022-07-18T04:22:09;6.20;;;5.57;;
36303;SDS011;22335;49.800;8.596;2022-07-18T04:28:54;8.30;;;6.00;;
36303;SDS011;22335;49.800;8.596;2022-07-18T04:35:40;6.22;;;5.75;;
36303;SDS011;22335;49.800;8.596;2022-07-18T04:42:28;7.80;;;5.78;;
36303;SDS011;22335;49.800;8.596;2022-07-18T04:49:14;29.38;;;7.80;;
36303;SDS011;22335;49.800;8.596;2022-07-18T04:55:59;19.85;;;6.60;;
36303;SDS011;22335;49.800;8.596;2022-07-18T05:02:48;6.85;;;6.00;;
36303;SDS011;22335;49.800;8.596;2022-07-18T05:09:36;13.40;;;6.30;;
36303;SDS011;22335;49.800;8.596;2022-07-18T05:16:22;6.90;;;6.30;;
36303;SDS011;22335;49.800;8.596;2022-07-18T05:23:10;10.27;;;6.20;;
36303;SDS011;22335;49.800;8.596;2022-07-18T05:29:59;6.68;;;5.97;;
36303;SDS011;22335;49.800;8.596;2022-07-18T05:43:33;9.00;;;5.47;;
36303;SDS011;22335;49.800;8.596;2022-07-18T05:50:19;8.70;;;5.50;;
36303;SDS011;22335;49.800;8.596;2022-07-18T05:57:05;10.73;;;5.90;;
36303;SDS011;22335;49.800;8.596;2022-07-18T06:03:53;7.18;;;6.07;;
36303;SDS011;22335;49.800;8.596;2022-07-18T06:10:39;10.32;;;5.63;;
36303;SDS011;22335;49.800;8.596;2022-07-18T06:17:27;6.07;;;5.57;;
36303;SDS011;22335;49.800;8.596;2022-07-18T06:24:15;9.70;;;5.93;;
36303;SDS011;22335;49.800;8.596;2022-07-18T06:31:01;7.32;;;5.22;;
36303;SDS011;22335;49.800;8.596;2022-07-18T06:37:47;6.43;;;5.82;;
36303;SDS011;22335;49.800;8.596;2022-07-18T06:44:35;6.60;;;5.50;;
36303;SDS011;22335;49.800;8.596;2022-07-18T06:51:21;6.90;;;5.07;;
36303;SDS011;22335;49.800;8.596;2022-07-18T06:58:06;7.65;;;5.75;;
36303;SDS011;22335;49.800;8.596;2022-07-18T07:04:54;5.63;;;4.95;;
36303;SDS011;22335;49.800;8.596;2022-07-18T07:11:40;6.97;;;4.85;;
36303;SDS011;22335;49.800;8.596;2022-07-18T07:25:14;10.60;;;5.77;;
36303;SDS011;22335;49.800;8.596;2022-07-18T07:32:01;7.05;;;4.97;;
36303;SDS011;22335;49.800;8.596;2022-07-18T07:38:47;5.57;;;5.07;;
36303;SDS011;22335;49.800;8.596;2022-07-18T07:45:35;5.95;;;4.50;;
36303;SDS011;22335;49.800;8.596;2022-07-18T07:52:21;5.35;;;4.18;;
36303;SDS011;22335;49.800;8.596;2022-07-18T07:59:09;5.78;;;4.40;;
36303;SDS011;22335;49.800;8.596;2022-07-18T08:05:57;4.63;;;4.22;;
36303;SDS011;22335;49.800;8.596;2022-07-18T08:12:43;5.72;;;4.78;;
36303;SDS011;22335;49.800;8.596;2022-07-18T08:19:28;4.93;;;4.07;;
36303;SDS011;22335;49.800;8.596;2022-07-18T08:26:17;5.10;;;3.70;;
36303;SDS011;22335;49.800;8.596;2022-07-18T08:33:03;5.30;;;4.15;;
36303;SDS011;22335;49.800;8.596;2022-07-18T08:39:48;3.97;;;3.70;;
36303;SDS011;22335;49.800;8.596;2022-07-18T08:46:36;8.90;;;4.60;;
36303;SDS011;22335;49.800;8.596;2022-07-18T08:53:25;6.00;;;3.67;;
36303;SDS011;22335;49.800;8.596;2022-07-18T09:00:12;6.47;;;4.10;;
36303;SDS011;22335;49.800;8.596;2022-07-18T09:07:00;5.05;;;4.35;;
36303;SDS011;22335;49.800;8.596;2022-07-18T09:13:46;4.18;;;3.80;;
36303;SDS011;22335;49.800;8.596;2022-07-18T09:20:31;6.72;;;3.70;;
36303;SDS011;22335;49.800;8.596;2022-07-18T09:27:26;4.68;;;4.03;;
36303;SDS011;22335;49.800;8.596;2022-07-18T09:34:31;4.45;;;3.45;;
36303;SDS011;22335;49.800;8.596;2022-07-18T09:41:21;6.25;;;4.10;;
36303;SDS011;22335;49.800;8.596;2022-07-18T09:48:11;12.60;;;4.10;;
36303;SDS011;22335;49.800;8.596;2022-07-18T09:55:03;6.32;;;3.60;;
36303;SDS011;22335;49.800;8.596;2022-07-18T10:01:50;4.32;;;3.95;;
36303;SDS011;22335;49.800;8.596;2022-07-18T10:08:38;3.97;;;3.55;;
36303;SDS011;22335;49.800;8.596;2022-07-18T10:15:25;4.82;;;3.40;;
36303;SDS011;22335;49.800;8.596;2022-07-18T10:22:12;4.40;;;3.88;;
36303;SDS011;22335;49.800;8.596;2022-07-18T10:29:12;5.45;;;3.63;;
36303;SDS011;22335;49.800;8.596;2022-07-18T10:36:06;4.32;;;3.80;;
36303;SDS011;22335;49.800;8.596;2022-07-18T10:50:24;8.18;;;3.83;;
36303;SDS011;22335;49.800;8.596;2022-07-18T10:57:10;3.67;;;3.38;;
36303;SDS011;22335;49.800;8.596;2022-07-18T11:11:16;6.47;;;4.03;;
36303;SDS011;22335;49.800;8.596;2022-07-18T11:18:04;3.65;;;3.45;;
36303;SDS011;22335;49.800;8.596;2022-07-18T11:24:50;4.35;;;3.47;;
36303;SDS011;22335;49.800;8.596;2022-07-18T11:31:44;4.88;;;3.38;;
36303;SDS011;22335;49.800;8.596;2022-07-18T11:38:31;5.95;;;3.78;;
36303;SDS011;22335;49.800;8.596;2022-07-18T11:45:18;5.40;;;3.25;;
36303;SDS011;22335;49.800;8.596;2022-07-18T11:52:10;4.57;;;3.80;;
36303;SDS011;22335;49.800;8.596;2022-07-18T11:58:56;3.33;;;3.08;;
36303;SDS011;22335;49.800;8.596;2022-07-18T12:05:42;4.20;;;3.63;;
36303;SDS011;22335;49.800;8.596;2022-07-18T12:12:35;3.70;;;3.40;;
36303;SDS011;22335;49.800;8.596;2022-07-18T12:19:21;4.22;;;3.53;;
36303;SDS011;22335;49.800;8.596;2022-07-18T12:26:27;3.80;;;3.40;;
36303;SDS011;22335;49.800;8.596;2022-07-18T12:33:31;4.90;;;3.33;;
36303;SDS011;22335;49.800;8.596;2022-07-18T12:40:16;6.15;;;3.88;;
36303;SDS011;22335;49.800;8.596;2022-07-18T12:47:07;5.40;;;3.05;;
36303;SDS011;22335;49.800;8.596;2022-07-18T12:53:55;3.80;;;3.30;;
36303;SDS011;22335;49.800;8.596;2022-07-18T13:00:41;4.07;;;3.55;;
36303;SDS011;22335;49.800;8.596;2022-07-18T13:07:27;3.78;;;3.33;;
36303;SDS011;22335;49.800;8.596;2022-07-18T13:14:15;4.25;;;3.42;;
36303;SDS011;22335;49.800;8.596;2022-07-18T13:21:01;3.92;;;3.63;;
36303;SDS011;22335;49.800;8.596;2022-07-18T13:27:47;3.70;;;3.30;;
36303;SDS011;22335;49.800;8.596;2022-07-18T13:34:36;5.97;;;3.83;;
36303;SDS011;22335;49.800;8.596;2022-07-18T13:41:21;4.82;;;3.75;;
36303;SDS011;22335;49.800;8.596;2022-07-18T13:48:07;4.45;;;4.05;;
36303;SDS011;22335;49.800;8.596;2022-07-18T13:54:55;5.07;;;3.25;;
36303;SDS011;22335;49.800;8.596;2022-07-18T14:01:42;3.78;;;3.50;;
36303;SDS011;22335;49.800;8.596;2022-07-18T14:08:27;8.05;;;4.22;;
36303;SDS011;22335;49.800;8.596;2022-07-18T14:15:16;5.90;;;3.78;;
36303;SDS011;22335;49.800;8.596;2022-07-18T14:22:01;3.95;;;3.58;;
36303;SDS011;22335;49.800;8.596;2022-07-18T14:28:47;5.85;;;3.42;;
36303;SDS011;22335;49.800;8.596;2022-07-18T14:35:35;5.47;;;3.78;;
36303;SDS011;22335;49.800;8.596;2022-07-18T14:42:20;4.57;;;3.60;;
36303;SDS011;22335;49.800;8.596;2022-07-18T14:49:07;3.70;;;3.38;;
36303;SDS011;22335;49.800;8.596;2022-07-18T14:55:55;4.20;;;3.83;;
36303;SDS011;22335;49.800;8.596;2022-07-18T15:02:41;4.65;;;3.40;;
36303;SDS011;22335;49.800;8.596;2022-07-18T15:09:27;5.40;;;3.78;;
36303;SDS011;22335;49.800;8.596;2022-07-18T15:16:18;5.68;;;3.70;;
36303;SDS011;22335;49.800;8.596;2022-07-18T15:23:03;3.97;;;3.58;;
36303;SDS011;22335;49.800;8.596;2022-07-18T15:29:49;3.95;;;3.33;;
36303;SDS011;22335;49.800;8.596;2022-07-18T15:36:40;4.18;;;3.42;;
36303;SDS011;22335;49.800;8.596;2022-07-18T15:43:25;7.80;;;3.80;;
36303;SDS011;22335;49.800;8.596;2022-07-18T15:50:11;4.97;;;3.53;;
36303;SDS011;22335;49.800;8.596;2022-07-18T15:56:59;4.47;;;3.70;;
36303;SDS011;22335;49.800;8.596;2022-07-18T16:03:45;3.83;;;3.25;;
36303;SDS011;22335;49.800;8.596;2022-07-18T16:10:31;5.03;;;3.90;;
36303;SDS011;22335;49.800;8.596;2022-07-18T16:17:19;4.93;;;3.65;;
36303;SDS011;22335;49.800;8.596;2022-07-18T16:24:05;3.85;;;3.55;;
36303;SDS011;22335;49.800;8.596;2022-07-18T16:30:51;4.20;;;3.40;;
36303;SDS011;22335;49.800;8.596;2022-07-18T16:37:39;5.75;;;3.22;;
36303;SDS011;22335;49.800;8.596;2022-07-18T16:44:26;7.78;;;3.42;;
36303;SDS011;22335;49.800;8.596;2022-07-18T16:51:12;4.30;;;3.40;;
36303;SDS011;22335;49.800;8.596;2022-07-18T16:58:01;5.03;;;3.95;;
36303;SDS011;22335;49.800;8.596;2022-07-18T17:04:48;4.70;;;3.25;;
36303;SDS011;22335;49.800;8.596;2022-07-18T17:11:35;5.10;;;3.33;;
36303;SDS011;22335;49.800;8.596;2022-07-18T17:18:25;6.65;;;3.88;;
36303;SDS011;22335;49.800;8.596;2022-07-18T17:25:11;3.95;;;3.72;;
36303;SDS011;22335;49.800;8.596;2022-07-18T17:31:59;4.43;;;4.03;;
36303;SDS011;22335;49.800;8.596;2022-07-18T17:38:48;5.63;;;3.67;;
36303;SDS011;22335;49.800;8.596;2022-07-18T17:45:34;4.65;;;4.13;;
36303;SDS011;22335;49.800;8.596;2022-07-18T17:52:21;4.75;;;3.92;;
36303;SDS011;22335;49.800;8.596;2022-07-18T17:59:09;3.83;;;3.53;;
36303;SDS011;22335;49.800;8.596;2022-07-18T18:05:55;3.75;;;3.45;;
36303;SDS011;22335;49.800;8.596;2022-07-18T18:12:41;6.82;;;4.05;;
36303;SDS011;22335;49.800;8.596;2022-07-18T18:19:29;8.15;;;4.13;;
36303;SDS011;22335;49.800;8.596;2022-07-18T18:26:15;6.18;;;4.22;;
36303;SDS011;22335;49.800;8.596;2022-07-18T18:33:00;7.65;;;4.43;;
36303;SDS011;22335;49.800;8.596;2022-07-18T18:39:48;7.28;;;3.88;;
36303;SDS011;22335;49.800;8.596;2022-07-18T18:46:34;5.90;;;4.38;;
36303;SDS011;22335;49.800;8.596;2022-07-18T18:53:20;5.07;;;4.68;;
36303;SDS011;22335;49.800;8.596;2022-07-18T19:00:09;4.75;;;4.35;;
36303;SDS011;22335;49.800;8.596;2022-07-18T19:06:58;5.53;;;4.33;;
36303;SDS011;22335;49.800;8.596;2022-07-18T19:13:44;4.80;;;4.28;;
36303;SDS011;22335;49.800;8.596;2022-07-18T19:20:32;5.35;;;4.85;;
36303;SDS011;22335;49.800;8.596;2022-07-18T19:27:18;8.10;;;4.72;;
36303;SDS011;22335;49.800;8.596;2022-07-18T19:34:04;9.45;;;5.45;;
36303;SDS011;22335;49.800;8.596;2022-07-18T19:40:52;9.60;;;5.18;;
36303;SDS011;22335;49.800;8.596;2022-07-18T19:47:38;6.05;;;5.32;;
36303;SDS011;22335;49.800;8.596;2022-07-18T19:54:24;7.63;;;4.97;;
36303;SDS011;22335;49.800;8.596;2022-07-18T20:01:12;5.85;;;4.80;;
36303;SDS011;22335;49.800;8.596;2022-07-18T20:07:58;5.10;;;4.28;;
36303;SDS011;22335;49.800;8.596;2022-07-18T20:14:44;5.20;;;4.75;;
36303;SDS011;22335;49.800;8.596;2022-07-18T20:21:32;5.78;;;5.18;;
36303;SDS011;22335;49.800;8.596;2022-07-18T20:28:18;6.30;;;5.35;;
36303;SDS011;22335;49.800;8.596;2022-07-18T20:35:04;6.97;;;4.90;;
36303;SDS011;22335;49.800;8.596;2022-07-18T20:41:53;5.32;;;4.93;;
36303;SDS011;22335;49.800;8.596;2022-07-18T20:48:39;5.13;;;4.70;;
36303;SDS011;22335;49.800;8.596;2022-07-18T20:55:24;4.68;;;4.20;;
36303;SDS011;22335;49.800;8.596;2022-07-18T21:02:12;4.82;;;4.32;;
36303;SDS011;22335;49.800;8.596;2022-07-18T21:08:58;6.55;;;4.80;;
36303;SDS011;22335;49.800;8.596;2022-07-18T21:15:43;7.13;;;4.78;;
36303;SDS011;22335;49.800;8.596;2022-07-18T21:22:32;9.90;;;4.80;;
36303;SDS011;22335;49.800;8.596;2022-07-18T21:29:17;5.68;;;4.82;;
36303;SDS011;22335;49.800;8.596;2022-07-18T21:36:03;7.97;;;4.80;;
36303;SDS011;22335;49.800;8.596;2022-07-18T21:42:52;8.35;;;4.40;;
36303;SDS011;22335;49.800;8.596;2022-07-18T21:49:37;6.00;;;4.75;;
36303;SDS011;22335;49.800;8.596;2022-07-18T21:56:23;7.05;;;4.50;;
36303;SDS011;22335;49.800;8.596;2022-07-18T22:03:11;5.45;;;4.05;;
36303;SDS011;22335;49.800;8.596;2022-07-18T22:09:56;5.15;;;4.28;;
36303;SDS011;22335;49.800;8.596;2022-07-18T22:16:42;5.82;;;5.30;;
36303;SDS011;22335;49.800;8.596;2022-07-18T22:23:30;5.10;;;4.70;;
36303;SDS011;22335;49.800;8.596;2022-07-18T22:30:16;5.68;;;5.18;;
36303;SDS011;22335;49.800;8.596;2022-07-18T22:37:01;5.03;;;4.63;;
36303;SDS011;22335;49.800;8.596;2022-07-18T22:43:50;5.88;;;5.18;;
36303;SDS011;22335;49.800;8.596;2022-07-18T22:50:35;6.32;;;4.82;;
36303;SDS011;22335;49.800;8.596;2022-07-18T22:57:21;4.78;;;4.38;;
36303;SDS011;22335;49.800;8.596;2022-07-18T23:04:09;5.38;;;4.80;;
36303;SDS011;22335;49.800;8.596;2022-07-18T23:10:55;7.43;;;4.97;;
36303;SDS011;22335;49.800;8.596;2022-07-18T23:17:41;6.63;;;5.00;;
36303;SDS011;22335;49.800;8.596;2022-07-18T23:24:29;5.70;;;5.30;;
36303;SDS011;22335;49.800;8.596;2022-07-18T23:31:14;6.03;;;5.25;;
36303;SDS011;22335;49.800;8.596;2022-07-18T23:38:00;7.03;;;5.50;;
36303;SDS011;22335;49.800;8.596;2022-07-18T23:44:48;7.60;;;5.28;;
36303;SDS011;22335;49.800;8.596;2022-07-18T23:51:34;8.80;;;6.35;;
36303;SDS011;22335;49.800;8.596;2022-07-18T23:58:19;8.50;;;6.95;;
